Time;durP1;ratioP1;P1;durP2;ratioP2;P2;SDS_P1;SDS_P2;PMS_P1;PMS_P2;Temp;Humidity;BMP_temperature;BMP_pressure;BME280_temperature;BME280_humidity;BME280_pressure;Samples;Min_cycle;Max_cycle;Signal;HPM_P1;HPM_P2
2024/05/06 00:01:01;;;;;;;3.70;1.58;;;17.70;1.00;;;;;;5190237;27;20485;-93
2024/05/06 00:03:28;;;;;;;2.83;1.30;;;17.60;1.00;;;;;;5188828;27;20138;-93
2024/05/06 00:05:56;;;;;;;2.08;1.15;;;17.40;1.00;;;;;;5163611;27;20096;-93
2024/05/06 00:08:24;;;;;;;7.72;1.48;;;17.30;1.00;;;;;;5192264;27;20079;-93
2024/05/06 00:10:51;;;;;;;7.70;1.45;;;17.20;1.00;;;;;;5190909;27;20546;-92
2024/05/06 00:13:18;;;;;;;2.47;1.58;;;17.10;1.00;;;;;;5190347;27;20524;-93
2024/05/06 00:15:45;;;;;;;4.75;1.70;;;17.00;1.00;;;;;;5187670;27;20068;-92
2024/05/06 00:18:12;;;;;;;4.43;1.50;;;16.90;1.00;;;;;;5188904;27;20378;-93
2024/05/06 00:20:41;;;;;;;5.03;1.55;;;16.80;1.00;;;;;;5160910;27;20072;-93
2024/05/06 00:23:08;;;;;;;4.03;1.50;;;16.80;1.00;;;;;;5188173;27;20057;-93
2024/05/06 00:25:35;;;;;;;6.78;1.80;;;16.80;1.00;;;;;;5187927;27;20060;-93
2024/05/06 00:28:03;;;;;;;7.65;1.90;;;16.70;1.00;;;;;;5188982;27;20060;-93
2024/05/06 00:30:30;;;;;;;5.05;2.05;;;16.70;8.60;;;;;;5188273;27;20148;-93
2024/05/06 00:32:57;;;;;;;6.32;2.08;;;16.60;25.10;;;;;;5188514;27;20107;-93
2024/05/06 00:35:28;;;;;;;5.63;1.90;;;16.60;34.50;;;;;;5167547;27;20121;-93
2024/05/06 00:37:57;;;;;;;5.25;2.20;;;16.60;50.40;;;;;;5129065;27;20057;-94
2024/05/06 00:40:24;;;;;;;6.20;1.85;;;16.60;75.10;;;;;;5129542;27;20061;-93
2024/05/06 00:43:09;;;;;;;5.20;1.83;;;16.60;92.40;;;;;;5155788;27;20084;-93
2024/05/06 00:45:44;;;;;;;4.35;2.20;;;16.60;99.70;;;;;;5155380;27;20061;-94
2024/05/06 00:48:17;;;;;;;6.88;2.70;;;16.50;97.90;;;;;;5129857;27;20087;-94
2024/05/06 00:50:45;;;;;;;5.47;2.35;;;16.60;99.90;;;;;;5127969;27;20068;-93
2024/05/06 00:53:12;;;;;;;4.72;2.15;;;16.60;99.90;;;;;;5128253;27;20057;-94
2024/05/06 00:55:43;;;;;;;3.38;1.50;;;16.60;99.90;;;;;;5155275;27;20069;-93
2024/05/06 00:58:14;;;;;;;6.88;2.20;;;16.50;99.90;;;;;;5126964;27;20075;-93
2024/05/06 01:00:42;;;;;;;3.47;1.77;;;16.50;99.90;;;;;;5155660;27;20139;-93
2024/05/06 01:03:09;;;;;;;4.15;1.90;;;16.50;99.90;;;;;;5155102;27;20075;-93
2024/05/06 01:05:37;;;;;;;7.28;2.25;;;16.50;99.90;;;;;;5129546;27;20060;-93
2024/05/06 01:08:05;;;;;;;7.32;2.40;;;16.50;99.90;;;;;;5129270;27;20072;-93
2024/05/06 01:10:32;;;;;;;3.50;1.85;;;16.50;99.90;;;;;;5128084;27;20140;-94
2024/05/06 01:13:00;;;;;;;3.92;1.88;;;16.60;99.90;;;;;;5128095;27;20083;-93
2024/05/06 01:15:34;;;;;;;5.88;1.90;;;16.70;99.90;;;;;;5128015;27;20144;-93
2024/05/06 01:18:01;;;;;;;3.53;1.80;;;16.70;99.50;;;;;;5154911;27;20057;-93
2024/05/06 01:20:39;;;;;;;3.65;1.70;;;16.70;92.00;;;;;;5128220;27;20415;-93
2024/05/06 01:23:09;;;;;;;6.63;1.70;;;16.70;99.60;;;;;;5154245;27;20065;-93
2024/05/06 01:25:37;;;;;;;5.65;1.98;;;16.60;95.90;;;;;;5129009;27;20061;-93
2024/05/06 01:28:05;;;;;;;4.88;1.90;;;16.70;95.00;;;;;;5129496;27;20536;-93
2024/05/06 01:30:35;;;;;;;3.80;1.35;;;16.60;99.90;;;;;;5156580;27;20060;-92
2024/05/06 01:33:10;;;;;;;4.55;1.95;;;16.60;97.70;;;;;;5131278;27;20063;-93
2024/05/06 01:35:39;;;;;;;5.60;1.70;;;16.60;99.90;;;;;;5128048;27;20096;-94
2024/05/06 01:38:07;;;;;;;4.28;1.88;;;16.60;99.90;;;;;;5154461;27;20124;-93
2024/05/06 01:40:36;;;;;;;6.07;1.90;;;16.50;99.90;;;;;;5128170;27;20516;-93
2024/05/06 01:43:04;;;;;;;5.00;2.08;;;16.40;99.90;;;;;;5154600;27;20061;-93
2024/05/06 01:45:31;;;;;;;7.00;2.08;;;16.30;99.90;;;;;;5128654;27;20084;-93
2024/05/06 01:47:58;;;;;;;5.05;1.92;;;16.30;99.90;;;;;;5128196;27;20119;-93
2024/05/06 01:50:26;;;;;;;6.45;2.20;;;16.30;99.90;;;;;;5155892;27;20509;-94
2024/05/06 01:52:56;;;;;;;8.18;2.17;;;16.20;99.90;;;;;;5127392;27;20120;-93
2024/05/06 01:55:23;;;;;;;4.93;2.15;;;16.10;99.90;;;;;;5154434;27;20056;-93
2024/05/06 01:57:52;;;;;;;5.75;2.55;;;16.20;99.90;;;;;;5154833;27;20540;-93
2024/05/06 02:00:23;;;;;;;6.20;2.67;;;16.10;99.90;;;;;;5127662;27;20061;-94
2024/05/06 02:02:50;;;;;;;10.05;2.60;;;16.10;99.90;;;;;;5128431;27;20120;-94
2024/05/06 02:05:19;;;;;;;5.15;2.70;;;16.10;99.90;;;;;;5133829;27;20079;-93
2024/05/06 02:07:47;;;;;;;6.03;2.30;;;16.20;99.90;;;;;;5127856;27;20060;-93
2024/05/06 02:10:15;;;;;;;4.50;2.25;;;16.30;99.90;;;;;;5154756;27;20057;-93
2024/05/06 02:12:43;;;;;;;3.80;2.28;;;16.30;99.90;;;;;;5181616;27;20059;-93
2024/05/06 02:15:12;;;;;;;4.72;2.30;;;16.30;99.90;;;;;;5153775;27;20060;-93
2024/05/06 02:17:39;;;;;;;4.57;2.10;;;16.30;99.90;;;;;;5154915;27;20079;-92
2024/05/06 02:20:07;;;;;;;7.57;2.55;;;16.30;99.90;;;;;;5154410;27;20592;-94
2024/05/06 02:22:34;;;;;;;5.43;2.65;;;16.30;99.90;;;;;;5181837;27;20072;-93
2024/05/06 02:25:02;;;;;;;6.45;2.67;;;16.30;99.90;;;;;;5169393;27;20452;-93
2024/05/06 02:27:29;;;;;;;4.70;2.63;;;16.30;99.90;;;;;;5154690;27;20056;-93
2024/05/06 02:29:56;;;;;;;6.57;2.63;;;16.30;99.90;;;;;;5182566;27;20092;-93
2024/05/06 02:32:23;;;;;;;6.40;2.80;;;16.30;99.90;;;;;;5154639;27;20109;-94
2024/05/06 02:34:50;;;;;;;6.20;3.28;;;16.30;99.90;;;;;;5181205;27;20116;-93
2024/05/06 02:37:17;;;;;;;6.32;3.15;;;16.30;99.90;;;;;;5154553;27;20060;-94
2024/05/06 02:39:45;;;;;;;6.65;3.13;;;16.30;99.90;;;;;;5181772;27;20057;-93
2024/05/06 02:42:12;;;;;;;5.38;2.80;;;16.30;99.90;;;;;;5179359;27;20065;-94
2024/05/06 02:44:40;;;;;;;6.07;3.10;;;16.20;99.90;;;;;;5153337;27;20083;-94
2024/05/06 02:47:07;;;;;;;4.97;2.97;;;16.20;99.90;;;;;;5184054;27;20060;-93
2024/05/06 02:49:37;;;;;;;4.40;3.10;;;16.20;99.90;;;;;;5127442;27;20087;-93
2024/05/06 02:52:05;;;;;;;6.40;3.03;;;16.20;99.90;;;;;;5154827;27;20517;-93
2024/05/06 02:54:32;;;;;;;5.90;3.08;;;16.10;99.90;;;;;;5180828;27;20069;-93
2024/05/06 02:56:59;;;;;;;4.15;2.95;;;16.10;99.90;;;;;;5150501;27;20061;-94
2024/05/06 02:59:27;;;;;;;8.15;2.97;;;16.00;99.90;;;;;;5122600;27;20122;-94
2024/05/06 03:01:56;;;;;;;7.30;3.00;;;16.00;99.90;;;;;;5155318;27;20077;-93
2024/05/06 03:04:27;;;;;;;6.22;2.88;;;15.90;99.90;;;;;;5153823;27;20060;-93
2024/05/06 03:06:56;;;;;;;4.13;2.63;;;15.90;99.90;;;;;;5134717;27;20085;-92
2024/05/06 03:09:23;;;;;;;6.68;2.80;;;15.80;99.90;;;;;;5180677;27;20092;-94
2024/05/06 03:11:53;;;;;;;7.28;3.35;;;15.70;99.90;;;;;;5153676;27;20065;-94
2024/05/06 03:14:24;;;;;;;6.57;3.15;;;15.70;99.90;;;;;;5154708;27;20061;-94
2024/05/06 03:16:51;;;;;;;5.72;3.40;;;15.60;99.90;;;;;;5153666;27;20060;-93
2024/05/06 03:19:18;;;;;;;7.25;3.75;;;15.60;99.90;;;;;;5181227;27;20064;-94
2024/05/06 03:21:46;;;;;;;7.88;4.05;;;15.60;99.90;;;;;;5155013;27;20079;-94
2024/05/06 03:24:13;;;;;;;5.68;3.83;;;15.60;99.90;;;;;;5183722;27;20090;-94
2024/05/06 03:26:44;;;;;;;8.77;4.10;;;15.60;99.90;;;;;;5155803;27;20189;-94
2024/05/06 03:29:11;;;;;;;9.38;4.13;;;15.70;99.90;;;;;;5183746;27;20061;-94
2024/05/06 03:31:47;;;;;;;7.07;4.35;;;15.70;99.90;;;;;;5131430;27;20065;-94
2024/05/06 03:34:22;;;;;;;6.03;3.78;;;15.70;99.90;;;;;;5156015;27;20152;-93
2024/05/06 03:36:51;;;;;;;6.00;4.00;;;15.80;99.90;;;;;;5157803;27;20079;-93
2024/05/06 03:39:18;;;;;;;13.77;6.35;;;15.70;99.90;;;;;;5130385;27;20144;-94
2024/05/06 03:41:51;;;;;;;7.57;5.10;;;15.60;99.90;;;;;;5184141;27;20068;-93
2024/05/06 03:44:19;;;;;;;7.32;4.95;;;15.50;99.90;;;;;;5156635;27;20062;-94
2024/05/06 03:46:46;;;;;;;9.23;4.97;;;15.50;99.90;;;;;;5156348;27;20100;-94
2024/05/06 03:49:16;;;;;;;8.10;6.20;;;15.50;99.90;;;;;;5183504;27;20066;-93
2024/05/06 03:51:43;;;;;;;14.90;6.07;;;15.40;99.90;;;;;;5156163;27;20128;-93
2024/05/06 03:54:11;;;;;;;11.23;5.97;;;15.30;99.90;;;;;;5185355;27;20056;-93
2024/05/06 03:56:41;;;;;;;9.48;4.65;;;15.30;99.90;;;;;;5130486;27;20064;-94
2024/05/06 03:59:08;;;;;;;9.55;5.15;;;15.40;99.90;;;;;;5189603;27;20069;-94
2024/05/06 04:01:35;;;;;;;10.63;6.18;;;15.40;99.90;;;;;;5188412;27;20071;-93
2024/05/06 04:04:03;;;;;;;10.10;6.53;;;15.40;99.90;;;;;;5188949;27;20134;-92
2024/05/06 04:06:33;;;;;;;10.10;5.85;;;15.40;99.90;;;;;;5188950;27;20063;-93
2024/05/06 04:09:01;;;;;;;12.48;5.95;;;15.30;99.90;;;;;;5171041;27;20064;-93
2024/05/06 04:11:28;;;;;;;9.10;6.15;;;15.30;99.90;;;;;;5155951;27;20413;-94
2024/05/06 04:13:55;;;;;;;9.57;6.32;;;15.40;99.90;;;;;;5142726;27;20069;-93
2024/05/06 04:16:23;;;;;;;11.57;6.45;;;15.40;99.90;;;;;;5123502;27;20087;-93
2024/05/06 04:18:51;;;;;;;8.20;6.00;;;15.40;99.90;;;;;;5149269;27;20072;-93
2024/05/06 04:21:20;;;;;;;14.48;6.22;;;15.40;99.90;;;;;;5124186;27;20087;-94
2024/05/06 04:29:22;;;;;;;9.63;5.50;;;15.50;99.90;;;;;;5152173;27;20061;-94
2024/05/06 04:31:50;;;;;;;11.77;6.38;;;15.50;99.90;;;;;;5149855;27;20148;-94
2024/05/06 04:34:17;;;;;;;10.30;5.90;;;15.60;99.90;;;;;;5123267;27;20060;-93
2024/05/06 04:36:44;;;;;;;8.65;5.30;;;15.70;99.90;;;;;;5151031;27;20093;-94
2024/05/06 04:39:18;;;;;;;10.75;5.25;;;15.80;99.90;;;;;;5123505;27;20061;-93
2024/05/06 04:41:48;;;;;;;18.20;6.13;;;15.70;99.90;;;;;;5151431;27;20066;-93
2024/05/06 04:44:15;;;;;;;9.52;5.57;;;15.70;99.90;;;;;;5151771;27;20472;-93
2024/05/06 04:46:47;;;;;;;10.05;4.80;;;15.70;99.90;;;;;;5149932;27;20069;-94
2024/05/06 04:49:14;;;;;;;9.70;4.57;;;15.80;99.90;;;;;;5149881;27;20140;-94
2024/05/06 04:51:41;;;;;;;7.85;4.28;;;15.80;99.90;;;;;;5123274;27;20186;-92
2024/05/06 04:54:10;;;;;;;7.32;4.57;;;15.90;99.90;;;;;;5123282;27;20141;-93
2024/05/06 04:56:37;;;;;;;8.85;4.30;;;16.00;99.90;;;;;;5123004;27;20056;-94
2024/05/06 04:59:06;;;;;;;6.35;4.70;;;16.00;99.90;;;;;;5150008;27;20535;-94
2024/05/06 05:01:33;;;;;;;12.00;4.80;;;15.90;99.90;;;;;;5122630;27;20065;-91
2024/05/06 05:04:00;;;;;;;9.93;4.30;;;16.00;99.90;;;;;;5122827;27;20072;-92
2024/05/06 05:06:30;;;;;;;8.80;4.55;;;16.00;99.90;;;;;;5149493;27;20402;-92
2024/05/06 05:08:57;;;;;;;8.73;5.30;;;16.00;99.90;;;;;;5133993;27;20087;-93
2024/05/06 05:11:24;;;;;;;10.23;5.13;;;16.10;99.90;;;;;;5150648;27;20390;-92
2024/05/06 05:13:51;;;;;;;8.75;5.75;;;16.10;99.90;;;;;;5148966;27;20069;-91
2024/05/06 05:16:22;;;;;;;8.57;6.10;;;16.20;99.90;;;;;;5123798;27;20095;-93
2024/05/06 05:18:49;;;;;;;11.07;6.25;;;16.20;99.90;;;;;;5123048;27;20065;-93
2024/05/06 05:21:16;;;;;;;14.38;7.10;;;16.30;99.90;;;;;;5096077;27;20062;-93
2024/05/06 05:23:44;;;;;;;13.68;7.72;;;16.40;99.90;;;;;;5124303;27;20614;-94
2024/05/06 05:26:11;;;;;;;13.23;8.38;;;16.40;99.90;;;;;;5122296;27;20061;-92
2024/05/06 05:28:40;;;;;;;11.38;8.52;;;16.50;99.90;;;;;;5123497;27;20072;-93
2024/05/06 05:31:08;;;;;;;13.95;8.52;;;16.50;99.90;;;;;;5122291;27;20092;-92
2024/05/06 05:33:38;;;;;;;13.60;7.95;;;16.50;99.90;;;;;;5097330;27;20058;-93
2024/05/06 05:36:13;;;;;;;13.45;8.82;;;16.50;99.90;;;;;;5141777;27;20068;-94
2024/05/06 05:38:46;;;;;;;13.70;8.67;;;16.60;99.90;;;;;;5132195;27;20088;-94
2024/05/06 05:41:19;;;;;;;11.43;9.18;;;16.70;99.90;;;;;;5155423;27;20308;-93
2024/05/06 05:43:46;;;;;;;15.35;9.55;;;16.70;99.90;;;;;;5154486;27;20100;-94
2024/05/06 05:46:13;;;;;;;12.73;9.00;;;16.80;99.90;;;;;;5129116;27;20058;-93
2024/05/06 05:48:40;;;;;;;11.95;9.38;;;16.90;99.90;;;;;;5155631;27;20076;-93
2024/05/06 05:51:08;;;;;;;13.82;9.82;;;17.00;99.90;;;;;;5128492;27;20098;-93
2024/05/06 05:53:38;;;;;;;16.17;10.13;;;17.10;99.90;;;;;;5154578;27;20061;-95
2024/05/06 05:56:05;;;;;;;14.57;9.50;;;17.10;99.90;;;;;;5121335;27;20069;-93
2024/05/06 06:01:09;;;;;;;18.83;10.35;;;17.20;99.90;;;;;;5138400;27;20070;-96
2024/05/06 06:04:00;;;;;;;14.30;9.50;;;17.30;99.90;;;;;;5150823;27;20140;-94
2024/05/06 06:06:27;;;;;;;17.35;11.07;;;17.40;99.90;;;;;;5097774;27;20109;-94
2024/05/06 06:08:54;;;;;;;16.05;10.52;;;17.40;99.90;;;;;;5123551;27;20087;-93
2024/05/06 06:11:22;;;;;;;18.00;11.20;;;17.40;99.90;;;;;;5148664;27;20454;-92
2024/05/06 06:13:49;;;;;;;15.40;11.20;;;17.50;99.90;;;;;;5095425;27;20084;-93
2024/05/06 06:16:17;;;;;;;10.82;9.05;;;17.50;99.90;;;;;;5150118;27;20085;-94
2024/05/06 06:18:45;;;;;;;13.85;9.65;;;17.60;99.90;;;;;;5123518;27;20065;-93
2024/05/06 06:21:15;;;;;;;13.23;8.80;;;17.60;99.90;;;;;;5123459;27;20148;-94
2024/05/06 06:23:43;;;;;;;11.98;9.25;;;17.70;99.90;;;;;;5125218;27;20470;-94
2024/05/06 06:26:10;;;;;;;15.88;9.35;;;17.70;99.90;;;;;;5096291;27;20061;-94
2024/05/06 06:28:37;;;;;;;11.32;8.48;;;17.80;99.90;;;;;;5122592;27;20060;-92
2024/05/06 06:31:10;;;;;;;11.23;8.05;;;17.90;99.90;;;;;;5148832;27;20084;-92
2024/05/06 06:33:38;;;;;;;13.73;8.20;;;18.00;99.90;;;;;;5094794;27;20081;-94
2024/05/06 06:36:06;;;;;;;13.20;8.18;;;18.10;99.90;;;;;;5149022;27;20077;-93
2024/05/06 06:38:35;;;;;;;15.35;8.25;;;18.30;99.90;;;;;;5148193;27;20398;-93
2024/05/06 06:41:02;;;;;;;15.50;8.20;;;18.40;99.90;;;;;;5095124;27;20087;-96
2024/05/06 06:43:29;;;;;;;16.42;8.02;;;18.60;99.90;;;;;;5148032;27;20126;-94
2024/05/06 06:45:56;;;;;;;12.60;7.90;;;18.70;99.90;;;;;;5095373;27;20083;-93
2024/05/06 06:48:24;;;;;;;11.32;7.20;;;18.80;99.90;;;;;;5147393;27;20215;-93
2024/05/06 06:50:51;;;;;;;12.10;6.47;;;18.80;99.90;;;;;;5094093;27;20093;-93
2024/05/06 06:53:18;;;;;;;12.43;6.38;;;18.90;99.90;;;;;;5153356;27;20499;-94
2024/05/06 06:55:45;;;;;;;12.43;6.18;;;18.90;99.90;;;;;;5121539;27;20149;-94
2024/05/06 06:58:15;;;;;;;10.77;6.47;;;18.80;99.90;;;;;;5154723;27;20084;-92
2024/05/06 07:00:42;;;;;;;12.13;6.68;;;18.90;99.90;;;;;;5145986;27;20153;-92
2024/05/06 07:03:10;;;;;;;11.13;6.95;;;18.90;99.90;;;;;;5146441;27;20604;-93
2024/05/06 07:05:38;;;;;;;10.43;6.78;;;18.90;99.90;;;;;;5095184;28;20370;-92
2024/05/06 07:08:06;;;;;;;8.25;5.55;;;18.90;99.90;;;;;;5146012;27;20090;-94
2024/05/06 07:10:34;;;;;;;11.45;6.75;;;19.00;99.90;;;;;;5118599;28;20053;-92
2024/05/06 07:13:02;;;;;;;12.82;6.60;;;19.00;99.90;;;;;;5145639;27;20240;-92
2024/05/06 07:15:29;;;;;;;11.10;7.32;;;19.00;99.90;;;;;;5119054;28;20093;-93
2024/05/06 07:17:58;;;;;;;12.38;6.85;;;19.00;99.90;;;;;;5145258;27;20061;-93
2024/05/06 07:20:26;;;;;;;12.90;7.28;;;19.10;79.80;;;;;;5117288;28;20078;-93
2024/05/06 07:22:53;;;;;;;13.70;7.65;;;19.20;90.70;;;;;;5145016;27;20145;-93
2024/05/06 07:25:21;;;;;;;11.80;7.40;;;19.20;76.70;;;;;;5145728;27;20065;-93
2024/05/06 07:27:49;;;;;;;13.35;7.97;;;19.20;47.60;;;;;;5092806;28;20123;-94
2024/05/06 07:30:17;;;;;;;16.55;8.60;;;19.10;19.30;;;;;;5145183;27;20062;-93
2024/05/06 07:32:44;;;;;;;13.65;8.40;;;19.10;27.70;;;;;;5092792;28;20089;-92
2024/05/06 07:35:11;;;;;;;14.15;8.98;;;19.00;25.60;;;;;;5147442;27;20115;-93
2024/05/06 07:37:40;;;;;;;12.02;8.07;;;18.90;15.90;;;;;;5118157;28;20407;-93
2024/05/06 07:40:08;;;;;;;15.00;9.23;;;18.90;21.90;;;;;;5092976;28;20085;-93
2024/05/06 07:42:36;;;;;;;13.50;8.93;;;18.90;24.60;;;;;;5091759;28;20070;-94
2024/05/06 07:45:04;;;;;;;11.18;8.85;;;19.00;12.50;;;;;;5144713;27;20093;-93
2024/05/06 07:47:31;;;;;;;18.92;10.73;;;19.20;1.00;;;;;;5092402;28;20069;-94
2024/05/06 07:50:01;;;;;;;13.45;9.43;;;19.20;1.00;;;;;;5119009;27;20583;-94
2024/05/06 07:52:28;;;;;;;14.75;9.98;;;19.20;3.50;;;;;;5146423;27;20078;-94
2024/05/06 07:55:04;;;;;;;18.02;10.85;;;19.30;1.00;;;;;;5123586;27;20570;-93
2024/05/06 07:57:41;;;;;;;16.50;11.02;;;19.50;1.00;;;;;;5147116;27;20061;-93
2024/05/06 08:00:08;;;;;;;13.50;10.68;;;19.40;1.00;;;;;;5167818;27;20065;-92
2024/05/06 08:02:35;;;;;;;13.27;10.82;;;19.50;13.40;;;;;;5178951;27;20066;-91
2024/05/06 08:05:03;;;;;;;14.60;10.73;;;19.50;9.20;;;;;;5153166;27;20061;-92
2024/05/06 08:07:35;;;;;;;16.33;11.13;;;19.60;1.40;;;;;;5177097;27;20072;-92
2024/05/06 08:10:03;;;;;;;19.58;11.02;;;19.70;4.00;;;;;;5153530;27;20120;-92
2024/05/06 08:12:30;;;;;;;15.50;10.90;;;19.80;1.00;;;;;;5161403;27;20101;-92
2024/05/06 08:14:57;;;;;;;17.98;10.48;;;19.80;1.00;;;;;;5121567;27;20130;-93
2024/05/06 08:17:27;;;;;;;15.38;10.82;;;19.80;1.00;;;;;;5123709;27;20065;-94
2024/05/06 08:19:56;;;;;;;16.60;10.88;;;19.80;1.00;;;;;;5097975;27;20061;-93
2024/05/06 08:22:23;;;;;;;16.83;10.50;;;19.80;1.00;;;;;;5095722;27;20065;-91
2024/05/06 08:24:50;;;;;;;17.80;12.40;;;19.80;1.00;;;;;;5148153;27;20126;-93
2024/05/06 08:27:17;;;;;;;15.68;11.07;;;19.80;1.00;;;;;;5096526;27;20514;-92
2024/05/06 08:29:46;;;;;;;16.65;10.60;;;19.80;5.20;;;;;;5121899;27;20062;-93
2024/05/06 08:32:14;;;;;;;19.38;10.82;;;19.90;10.40;;;;;;5148309;27;20100;-92
2024/05/06 08:34:50;;;;;;;16.77;11.25;;;20.00;6.70;;;;;;5122175;27;20060;-94
2024/05/06 08:37:17;;;;;;;17.17;10.55;;;20.30;1.00;;;;;;5148388;27;20478;-94
2024/05/06 08:39:44;;;;;;;14.57;10.57;;;20.50;1.00;;;;;;5147713;27;20506;-93
2024/05/06 08:42:31;;;;;;;21.60;11.05;;;20.50;1.00;;;;;;5121088;27;20530;-94
2024/05/06 08:45:01;;;;;;;17.30;10.75;;;20.70;1.00;;;;;;5122832;27;20091;-93
2024/05/06 08:47:30;;;;;;;17.48;9.82;;;20.80;1.00;;;;;;5150536;27;20069;-93
2024/05/06 08:49:58;;;;;;;11.77;8.50;;;21.00;1.00;;;;;;5151776;27;20073;-93
2024/05/06 08:52:28;;;;;;;13.02;9.43;;;21.20;1.00;;;;;;5097118;27;20065;-93
2024/05/06 08:55:03;;;;;;;16.15;9.35;;;21.60;1.00;;;;;;5095012;27;20106;-95
2024/05/06 08:57:34;;;;;;;11.60;8.05;;;21.80;1.00;;;;;;5122584;27;20559;-94
2024/05/06 09:00:02;;;;;;;11.65;7.20;;;22.10;1.00;;;;;;5095954;27;20077;-93
2024/05/06 09:02:52;;;;;;;15.55;7.00;;;22.30;1.00;;;;;;5097174;27;20074;-96
2024/05/06 09:05:28;;;;;;;15.75;5.93;;;22.40;1.00;;;;;;5122416;27;20069;-92
2024/05/06 09:07:57;;;;;;;12.80;6.68;;;22.20;1.00;;;;;;5118794;27;20072;-88
2024/05/06 09:10:32;;;;;;;8.93;5.60;;;21.90;1.00;;;;;;5093252;27;20060;-88
2024/05/06 09:13:06;;;;;;;10.50;4.22;;;21.80;1.00;;;;;;5120830;27;20056;-88
2024/05/06 09:15:34;;;;;;;9.52;5.75;;;21.60;1.00;;;;;;5147438;27;20069;-87
2024/05/06 09:18:01;;;;;;;17.17;6.43;;;21.60;1.00;;;;;;5119051;27;20061;-88
2024/05/06 09:20:29;;;;;;;6.97;6.13;;;21.40;1.00;;;;;;5146797;27;20083;-88
2024/05/06 09:23:13;;;;;;;11.55;5.90;;;21.40;1.00;;;;;;5145273;27;20057;-88
2024/05/06 09:25:45;;;;;;;8.95;4.75;;;21.20;1.00;;;;;;5119564;27;20059;-88
2024/05/06 09:28:13;;;;;;;11.77;4.85;;;20.90;1.00;;;;;;5092796;27;20148;-90
2024/05/06 09:30:50;;;;;;;8.57;5.00;;;20.60;1.00;;;;;;5119582;27;20072;-88
2024/05/06 09:33:21;;;;;;;13.30;6.38;;;20.40;1.00;;;;;;5145779;27;20060;-88
2024/05/06 09:36:06;;;;;;;11.48;6.13;;;20.40;1.00;;;;;;5123073;27;20434;-88
2024/05/06 09:38:36;;;;;;;12.43;6.78;;;20.40;1.00;;;;;;5119521;27;20065;-88
2024/05/06 09:41:12;;;;;;;13.63;5.53;;;20.30;1.00;;;;;;5093407;27;20071;-89
2024/05/06 09:43:41;;;;;;;13.30;6.53;;;20.30;1.00;;;;;;5147994;27;20064;-88
2024/05/06 09:46:10;;;;;;;13.85;7.50;;;20.50;1.00;;;;;;5147539;27;20087;-88
2024/05/06 09:48:37;;;;;;;14.00;7.03;;;20.60;1.00;;;;;;5120141;27;20381;-88
2024/05/06 09:51:07;;;;;;;14.23;6.63;;;20.60;1.00;;;;;;5093637;27;20065;-88
2024/05/06 09:53:38;;;;;;;12.40;6.55;;;20.80;1.00;;;;;;5119708;27;20110;-90
2024/05/06 09:56:07;;;;;;;12.90;6.63;;;21.00;1.00;;;;;;5119679;27;20140;-88
2024/05/06 09:58:35;;;;;;;16.15;8.00;;;21.10;1.00;;;;;;5093488;27;20068;-88
2024/05/06 10:01:06;;;;;;;14.80;7.47;;;21.00;1.00;;;;;;5147911;27;20405;-88
2024/05/06 10:03:34;;;;;;;14.57;7.28;;;21.10;1.00;;;;;;5119586;27;20065;-87
2024/05/06 10:06:05;;;;;;;15.98;7.00;;;21.10;1.00;;;;;;5093432;27;20065;-89
2024/05/06 10:08:36;;;;;;;12.60;6.40;;;21.10;1.00;;;;;;5119500;27;20069;-88
2024/05/06 10:11:08;;;;;;;14.35;6.75;;;21.30;1.00;;;;;;5092777;27;20061;-88
2024/05/06 10:13:44;;;;;;;14.32;7.15;;;21.30;1.00;;;;;;5119652;27;20173;-88
2024/05/06 10:16:24;;;;;;;12.80;7.50;;;21.20;1.00;;;;;;5122546;27;20095;-88
2024/05/06 10:18:54;;;;;;;14.23;7.22;;;21.10;1.00;;;;;;5165611;27;20095;-89
2024/05/06 10:21:38;;;;;;;10.35;6.45;;;20.90;1.00;;;;;;5119276;27;20064;-88
2024/05/06 10:24:06;;;;;;;13.25;6.43;;;20.80;1.00;;;;;;5119349;27;20061;-89
2024/05/06 10:26:48;;;;;;;12.70;7.57;;;20.70;1.00;;;;;;5118790;27;20072;-88
2024/05/06 10:29:17;;;;;;;10.75;6.38;;;20.40;1.00;;;;;;5087133;28;20558;-88
2024/05/06 10:31:49;;;;;;;10.02;6.30;;;20.40;1.00;;;;;;5090614;28;20108;-88
2024/05/06 10:34:26;;;;;;;14.18;7.05;;;20.40;1.00;;;;;;5090700;28;20080;-89
2024/05/06 10:37:11;;;;;;;14.85;7.15;;;20.40;1.00;;;;;;5091547;28;20061;-87
2024/05/06 10:39:42;;;;;;;14.48;5.93;;;20.30;1.00;;;;;;5091711;28;20056;-87
2024/05/06 10:42:14;;;;;;;12.20;6.53;;;20.40;1.00;;;;;;5090611;28;20089;-87
2024/05/06 10:44:49;;;;;;;13.10;6.03;;;20.40;1.00;;;;;;5064220;28;20094;-89
2024/05/06 10:47:19;;;;;;;10.95;5.57;;;20.60;1.00;;;;;;5090615;28;20068;-89
2024/05/06 10:49:47;;;;;;;12.02;5.90;;;20.80;1.00;;;;;;5064258;28;20080;-89
2024/05/06 10:52:14;;;;;;;11.10;6.00;;;21.00;1.00;;;;;;5117573;28;20077;-87
2024/05/06 10:54:41;;;;;;;11.77;5.93;;;21.10;1.00;;;;;;5099725;27;20068;-89
2024/05/06 10:57:08;;;;;;;12.40;6.03;;;21.30;1.00;;;;;;5121858;27;20100;-89
2024/05/06 10:59:35;;;;;;;9.10;5.55;;;21.40;1.00;;;;;;5160835;27;20079;-88
2024/05/06 11:02:02;;;;;;;9.35;5.15;;;21.60;1.00;;;;;;5127460;27;20061;-88
2024/05/06 11:04:39;;;;;;;13.77;5.00;;;21.60;1.00;;;;;;5129433;27;20082;-89
2024/05/06 11:07:08;;;;;;;9.40;4.60;;;21.80;1.00;;;;;;5153553;27;20081;-90
2024/05/06 11:09:42;;;;;;;9.90;5.15;;;21.80;1.00;;;;;;5121354;27;20159;-89
2024/05/06 11:12:13;;;;;;;9.90;4.88;;;21.70;1.00;;;;;;5121648;27;20501;-89
2024/05/06 11:14:41;;;;;;;8.20;4.95;;;21.70;1.00;;;;;;5120993;27;20097;-88
2024/05/06 11:17:10;;;;;;;12.65;6.13;;;21.70;1.00;;;;;;5122098;27;20623;-89
2024/05/06 11:19:48;;;;;;;10.05;5.43;;;21.70;1.00;;;;;;5121325;27;20057;-88
2024/05/06 11:22:26;;;;;;;18.45;6.38;;;21.50;1.00;;;;;;5122770;27;20086;-88
2024/05/06 11:24:58;;;;;;;9.02;5.18;;;21.40;1.00;;;;;;5121436;27;20064;-92
2024/05/06 11:27:25;;;;;;;8.88;5.07;;;21.30;1.00;;;;;;5121052;27;20154;-89
2024/05/06 11:29:53;;;;;;;10.65;4.93;;;21.30;1.00;;;;;;5121361;27;20179;-89
2024/05/06 11:32:21;;;;;;;10.70;4.82;;;21.40;1.00;;;;;;5121194;27;20064;-88
2024/05/06 11:34:49;;;;;;;8.18;4.53;;;21.30;1.00;;;;;;5121374;27;20629;-89
2024/05/06 11:37:16;;;;;;;11.13;4.78;;;21.20;1.00;;;;;;5095138;27;20502;-89
2024/05/06 11:39:43;;;;;;;9.48;4.43;;;20.90;1.00;;;;;;5121163;27;20085;-89
2024/05/06 11:42:11;;;;;;;9.70;4.70;;;20.90;1.00;;;;;;5094536;27;20151;-91
2024/05/06 11:44:38;;;;;;;7.13;4.00;;;21.00;1.00;;;;;;5121410;27;20078;-88
2024/05/06 11:47:07;;;;;;;7.75;4.47;;;21.00;1.00;;;;;;5121717;27;20088;-88
2024/05/06 11:49:34;;;;;;;8.10;4.22;;;21.10;1.00;;;;;;5121248;27;20061;-88
2024/05/06 11:52:01;;;;;;;9.77;4.05;;;21.30;1.00;;;;;;5147506;27;20545;-88
2024/05/06 11:54:28;;;;;;;8.13;3.85;;;21.40;1.00;;;;;;5121285;27;20061;-90
2024/05/06 11:56:55;;;;;;;9.95;3.95;;;21.50;1.00;;;;;;5121377;27;20149;-88
2024/05/06 11:59:22;;;;;;;7.13;3.88;;;21.70;1.00;;;;;;5116373;28;20189;-89
2024/05/06 12:01:49;;;;;;;12.18;4.72;;;21.90;1.00;;;;;;5116915;27;20463;-88
2024/05/06 12:04:18;;;;;;;11.07;4.32;;;21.90;99.90;;;;;;5127328;27;20069;-90
2024/05/06 12:07:07;;;;;;;13.30;4.55;;;21.80;99.90;;;;;;5138268;27;20065;-88
2024/05/06 12:09:54;;;;;;;9.77;4.20;;;21.80;99.90;;;;;;5158802;27;20123;-87
2024/05/06 12:12:39;;;;;;;12.40;4.70;;;21.70;99.90;;;;;;5159524;27;20076;-88
2024/05/06 12:15:14;;;;;;;15.57;4.45;;;21.80;99.90;;;;;;5135493;28;20130;-88
2024/05/06 12:18:24;;;;;;;8.68;3.53;;;21.90;99.90;;;;;;5134406;27;20077;-87
2024/05/06 12:21:09;;;;;;;9.40;3.55;;;22.00;99.90;;;;;;5161211;27;20087;-88
2024/05/06 12:23:52;;;;;;;9.25;3.90;;;21.90;99.90;;;;;;5131542;28;20073;-89
2024/05/06 12:26:37;;;;;;;8.75;4.22;;;21.90;99.90;;;;;;5083876;28;20069;-87
2024/05/06 12:29:04;;;;;;;12.43;4.30;;;21.80;99.90;;;;;;5084076;28;20062;-87
2024/05/06 12:31:31;;;;;;;8.90;4.32;;;21.70;1.00;;;;;;5057734;28;20078;-89
2024/05/06 12:33:59;;;;;;;8.32;4.43;;;21.60;99.90;;;;;;5083993;28;20148;-89
2024/05/06 12:36:27;;;;;;;7.00;3.50;;;21.60;99.90;;;;;;5084262;28;20061;-89
2024/05/06 12:38:55;;;;;;;9.55;4.00;;;21.40;99.90;;;;;;5084535;28;20085;-89
2024/05/06 12:41:22;;;;;;;9.80;4.10;;;21.30;99.90;;;;;;5084113;28;20065;-90
2024/05/06 12:43:49;;;;;;;11.27;4.32;;;21.20;1.00;;;;;;5089725;28;20057;-89
2024/05/06 12:46:16;;;;;;;9.43;4.43;;;21.00;1.00;;;;;;5089318;28;20093;-89
2024/05/06 12:48:45;;;;;;;9.27;4.47;;;21.00;1.00;;;;;;5115562;27;20061;-88
2024/05/06 12:51:13;;;;;;;9.75;4.93;;;20.90;1.00;;;;;;5115470;27;20065;-89
2024/05/06 12:53:40;;;;;;;11.27;5.18;;;20.80;1.00;;;;;;5114052;27;20073;-90
2024/05/06 12:56:07;;;;;;;13.85;5.00;;;20.70;1.00;;;;;;5115230;27;20057;-90
2024/05/06 12:58:34;;;;;;;12.52;5.50;;;20.60;1.00;;;;;;5115124;28;20523;-89
2024/05/06 13:01:03;;;;;;;9.13;5.57;;;20.60;1.00;;;;;;5141234;27;20061;-89
2024/05/06 13:03:38;;;;;;;11.75;6.00;;;20.60;1.00;;;;;;5116865;27;20564;-90
2024/05/06 13:06:05;;;;;;;9.88;4.85;;;20.50;1.00;;;;;;5115986;27;20088;-90